createdAt,value
2019-02-22T00:01:01.017Z,12.76
2019-02-22T00:03:29.277Z,12.76
2019-02-22T00:05:57.361Z,12.76
2019-02-22T00:08:25.346Z,12.75
2019-02-22T00:10:53.596Z,12.74
2019-02-22T00:13:21.686Z,12.74
2019-02-22T00:15:49.839Z,12.73
2019-02-22T00:18:17.792Z,12.73
2019-02-22T00:20:45.883Z,12.73
2019-02-22T00:23:13.834Z,12.72
2019-02-22T00:25:41.854Z,12.72
2019-02-22T00:28:09.838Z,12.73
2019-02-22T00:30:37.897Z,12.72
2019-02-22T00:33:05.864Z,12.71
2019-02-22T00:35:34.026Z,12.72
2019-02-22T00:38:02.174Z,12.71
2019-02-22T00:40:30.262Z,12.70
2019-02-22T00:42:58.333Z,12.71
2019-02-22T00:45:26.458Z,12.69
2019-02-22T00:47:54.445Z,12.70
2019-02-22T00:50:22.485Z,12.69
2019-02-22T00:52:50.554Z,12.69
2019-02-22T00:55:19.006Z,12.69
2019-02-22T00:57:47.042Z,12.69
2019-02-22T01:00:15.107Z,12.68
2019-02-22T01:02:43.125Z,12.67
2019-02-22T01:05:11.406Z,12.66
2019-02-22T01:07:39.578Z,12.66
2019-02-22T01:10:07.606Z,12.66
2019-02-22T01:12:35.593Z,12.66
2019-02-22T01:15:03.642Z,12.65
2019-02-22T01:17:31.609Z,12.66
2019-02-22T01:19:59.817Z,12.64
2019-02-22T01:22:28.166Z,12.65
2019-02-22T01:24:56.150Z,12.65
2019-02-22T01:27:24.288Z,12.64
2019-02-22T01:29:52.315Z,12.64
2019-02-22T01:32:20.289Z,12.63
2019-02-22T01:34:48.313Z,12.64
2019-02-22T01:37:16.283Z,12.63
2019-02-22T01:39:44.310Z,12.63
2019-02-22T01:42:12.295Z,12.61
2019-02-22T01:44:40.320Z,12.62
2019-02-22T01:47:08.367Z,12.62
2019-02-22T01:49:36.400Z,12.61
2019-02-22T01:52:04.451Z,12.61
2019-02-22T01:54:32.454Z,12.60
2019-02-22T01:57:00.446Z,12.59
2019-02-22T01:59:28.489Z,12.59
2019-02-22T02:01:56.814Z,12.59
2019-02-22T02:04:24.837Z,12.58
2019-02-22T02:06:53.233Z,12.58
2019-02-22T02:09:21.362Z,12.57
2019-02-22T02:11:49.393Z,12.57
2019-02-22T02:14:17.497Z,12.57
2019-02-22T02:16:45.732Z,12.56
2019-02-22T02:19:13.821Z,12.56
2019-02-22T02:21:41.874Z,12.56
2019-02-22T02:24:09.998Z,12.55
2019-02-22T02:26:38.074Z,12.55
2019-02-22T02:29:06.512Z,12.55
2019-02-22T02:31:34.502Z,12.55
2019-02-22T02:34:02.505Z,12.55
2019-02-22T02:36:30.620Z,12.53
2019-02-22T02:38:58.646Z,12.54
2019-02-22T02:41:26.808Z,12.54
2019-02-22T02:43:54.897Z,12.54
2019-02-22T02:46:23.037Z,12.52
2019-02-22T02:48:51.356Z,12.54
2019-02-22T02:51:19.583Z,12.50
2019-02-22T02:53:47.585Z,12.52
2019-02-22T02:56:15.693Z,12.51
2019-02-22T02:58:43.746Z,12.51
2019-02-22T03:01:11.745Z,12.49
2019-02-22T03:03:39.804Z,12.50
2019-02-22T03:06:16.919Z,12.49
2019-02-22T03:08:45.079Z,12.48
2019-02-22T03:11:20.777Z,12.48
2019-02-22T03:13:42.886Z,12.48
2019-02-22T03:16:10.833Z,12.47
2019-02-22T03:18:38.885Z,12.47
2019-02-22T03:21:06.922Z,12.48
2019-02-22T03:23:34.898Z,12.46
2019-02-22T03:26:02.871Z,12.46
2019-02-22T03:28:31.054Z,12.47
2019-02-22T03:30:58.947Z,12.46
2019-02-22T03:33:27.015Z,12.45
2019-02-22T03:35:54.953Z,12.45
2019-02-22T03:38:23.005Z,12.45
2019-02-22T03:40:51.041Z,12.45
2019-02-22T03:43:19.169Z,12.44
2019-02-22T03:45:47.040Z,12.44
2019-02-22T03:48:15.014Z,12.43
2019-02-22T03:50:42.970Z,12.43
2019-02-22T03:53:21.065Z,12.42
2019-02-22T03:55:49.022Z,12.43
2019-02-22T03:58:17.080Z,12.41
2019-02-22T04:00:45.037Z,12.41
2019-02-22T04:03:13.020Z,12.40
2019-02-22T04:05:41.046Z,12.41
2019-02-22T04:08:09.088Z,12.40
2019-02-22T04:10:37.186Z,12.40
2019-02-22T04:13:05.165Z,12.39
2019-02-22T04:15:33.467Z,12.39
2019-02-22T04:18:01.640Z,12.40
2019-02-22T04:20:30.043Z,12.39
2019-02-22T04:22:58.077Z,12.39
2019-02-22T04:25:26.078Z,12.39
2019-02-22T04:27:54.071Z,12.38
2019-02-22T04:30:22.195Z,12.37
2019-02-22T04:32:50.222Z,12.37
2019-02-22T04:35:18.206Z,12.37
2019-02-22T04:37:46.256Z,12.36
2019-02-22T04:40:14.294Z,12.36
2019-02-22T04:42:42.257Z,12.36
2019-02-22T04:45:10.334Z,12.36
2019-02-22T04:47:38.299Z,12.34
2019-02-22T04:50:06.928Z,12.34
2019-02-22T04:52:35.156Z,12.34
2019-02-22T04:55:03.292Z,12.35
2019-02-22T04:57:31.385Z,12.34
2019-02-22T04:59:59.437Z,12.34
2019-02-22T05:02:27.571Z,12.34
2019-02-22T05:04:55.511Z,12.32
2019-02-22T05:07:23.670Z,12.33
2019-02-22T05:09:51.726Z,12.32
2019-02-22T05:12:19.754Z,12.32
2019-02-22T05:14:47.804Z,12.32
2019-02-22T05:17:15.841Z,12.34
2019-02-22T05:19:43.889Z,12.32
2019-02-22T05:22:11.985Z,12.34
2019-02-22T05:24:40.202Z,12.35
2019-02-22T05:27:08.412Z,12.36
2019-02-22T05:29:36.530Z,12.38
2019-02-22T05:32:04.483Z,12.38
2019-02-22T05:34:32.535Z,12.38
2019-02-22T05:37:00.578Z,12.39
2019-02-22T05:39:28.563Z,12.41
2019-02-22T05:41:56.525Z,12.43
2019-02-22T05:44:24.657Z,12.43
2019-02-22T05:47:00.332Z,12.45
2019-02-22T05:49:22.635Z,12.47
2019-02-22T05:51:50.666Z,12.47
2019-02-22T05:54:18.863Z,12.48
2019-02-22T05:56:46.737Z,12.50
2019-02-22T05:59:14.886Z,12.51
2019-02-22T06:01:43.009Z,12.51
2019-02-22T06:04:11.058Z,12.52
2019-02-22T06:06:39.084Z,12.53
2019-02-22T06:09:07.069Z,12.54
2019-02-22T06:11:35.116Z,12.53
2019-02-22T06:14:03.106Z,12.54
2019-02-22T06:16:31.221Z,12.55
2019-02-22T06:18:59.273Z,12.56
2019-02-22T06:21:27.318Z,12.57
2019-02-22T06:23:55.505Z,12.58
2019-02-22T06:26:23.716Z,12.58
2019-02-22T06:28:51.764Z,12.60
2019-02-22T06:31:19.766Z,12.61
2019-02-22T06:33:48.040Z,12.62
2019-02-22T06:36:16.832Z,12.64
2019-02-22T06:38:46.735Z,12.68
2019-02-22T06:41:14.448Z,12.69
2019-02-22T06:43:42.517Z,12.71
2019-02-22T06:46:10.602Z,12.72
2019-02-22T06:48:38.731Z,12.73
2019-02-22T06:51:06.909Z,12.73
2019-02-22T06:53:34.960Z,12.74
2019-02-22T06:56:03.239Z,12.75
2019-02-22T06:58:31.345Z,12.76
2019-02-22T07:01:18.630Z,12.78
2019-02-22T07:03:47.062Z,12.77
2019-02-22T07:06:15.237Z,12.79
2019-02-22T07:08:43.321Z,12.81
2019-02-22T07:11:16.768Z,12.82
2019-02-22T07:13:44.966Z,12.84
2019-02-22T07:16:13.067Z,12.84
2019-02-22T07:18:41.166Z,12.85
2019-02-22T07:21:09.375Z,12.86
2019-02-22T07:23:37.539Z,12.86
2019-02-22T07:26:05.631Z,12.86
2019-02-22T07:28:33.969Z,12.87
2019-02-22T07:31:02.149Z,12.87
2019-02-22T07:33:30.241Z,12.88
2019-02-22T07:35:58.661Z,12.89
2019-02-22T07:38:27.957Z,12.91
2019-02-22T07:40:56.073Z,12.92
2019-02-22T07:43:24.178Z,12.93
2019-02-22T07:45:52.250Z,12.93
2019-02-22T07:48:20.290Z,12.94
2019-02-22T07:50:56.783Z,12.94
2019-02-22T07:53:18.204Z,12.95
2019-02-22T07:55:46.262Z,12.96
2019-02-22T07:58:14.523Z,12.96
2019-02-22T08:00:42.695Z,12.96
2019-02-22T08:03:10.780Z,12.98
2019-02-22T08:05:39.225Z,12.98
2019-02-22T08:08:07.230Z,12.99
2019-02-22T08:10:35.258Z,12.99
2019-02-22T08:13:03.318Z,13.04
2019-02-22T08:15:31.289Z,13.07
2019-02-22T08:17:59.390Z,13.10
2019-02-22T08:20:27.341Z,13.12
2019-02-22T08:22:55.406Z,13.13
2019-02-22T08:25:23.454Z,13.15
2019-02-22T08:27:54.052Z,13.14
2019-02-22T08:30:21.330Z,13.14
2019-02-22T08:32:49.345Z,13.17
2019-02-22T08:35:17.401Z,13.17
2019-02-22T08:37:45.446Z,13.18
2019-02-22T08:40:13.485Z,13.17
2019-02-22T08:42:41.649Z,13.16
2019-02-22T08:45:09.895Z,13.17
2019-02-22T08:47:37.917Z,13.16
2019-02-22T08:50:06.349Z,13.18
2019-02-22T08:52:34.769Z,13.18
2019-02-22T08:55:02.966Z,13.19
2019-02-22T08:57:31.153Z,13.19
2019-02-22T08:59:59.477Z,13.20
2019-02-22T09:02:27.465Z,13.22
2019-02-22T09:04:55.518Z,13.24
2019-02-22T09:07:23.653Z,13.28
2019-02-22T09:09:51.871Z,13.28
2019-02-22T09:12:19.943Z,13.30
2019-02-22T09:14:48.068Z,13.34
2019-02-22T09:17:16.329Z,13.36
2019-02-22T09:19:44.341Z,13.38
2019-02-22T09:22:22.473Z,13.42
2019-02-22T09:24:42.057Z,13.45
2019-02-22T09:29:44.510Z,13.51
2019-02-22T09:32:12.630Z,13.50
2019-02-22T09:37:29.362Z,13.47
2019-02-22T09:39:57.636Z,13.46
2019-02-22T09:42:25.669Z,13.46
2019-02-22T09:44:53.669Z,13.45
2019-02-22T09:47:21.696Z,13.44
2019-02-22T09:49:49.731Z,13.43
2019-02-22T09:52:17.788Z,13.42
2019-02-22T09:54:45.827Z,13.42
2019-02-22T09:57:13.822Z,13.41
2019-02-22T09:59:41.854Z,13.41
2019-02-22T10:02:10.096Z,13.40
2019-02-22T10:04:38.165Z,13.41
2019-02-22T10:07:06.209Z,13.42
2019-02-22T10:09:34.336Z,13.42
2019-02-22T10:12:02.574Z,13.41
2019-02-22T10:14:30.830Z,13.42
2019-02-22T10:16:58.787Z,13.42
2019-02-22T10:19:26.897Z,13.40
2019-02-22T10:21:57.396Z,13.40
2019-02-22T10:24:24.901Z,13.40
2019-02-22T10:26:52.950Z,13.39
2019-02-22T10:29:21.013Z,13.39
2019-02-22T10:31:49.256Z,13.39
2019-02-22T10:34:17.423Z,13.39
2019-02-22T10:36:45.718Z,13.38
2019-02-22T10:39:13.926Z,13.38
2019-02-22T10:41:41.985Z,13.38
2019-02-22T10:44:17.434Z,13.39
2019-02-22T10:46:39.954Z,13.38
2019-02-22T10:49:08.063Z,13.39
2019-02-22T10:51:36.027Z,13.39
2019-02-22T10:54:04.512Z,13.38
2019-02-22T10:56:32.826Z,13.39
2019-02-22T10:59:00.815Z,13.41
2019-02-22T11:01:28.887Z,13.40
2019-02-22T11:03:57.126Z,13.40
2019-02-22T11:06:25.220Z,13.40
2019-02-22T11:08:53.398Z,13.39
2019-02-22T11:11:21.431Z,13.37
2019-02-22T11:13:49.590Z,13.38
2019-02-22T11:16:17.665Z,13.36
2019-02-22T11:18:45.975Z,13.35
2019-02-22T11:21:14.159Z,13.31
2019-02-22T11:23:42.406Z,13.28
2019-02-22T11:26:10.576Z,13.27
2019-02-22T11:28:38.554Z,13.29
2019-02-22T11:31:06.652Z,13.30
2019-02-22T11:33:34.645Z,13.31
2019-02-22T11:36:02.774Z,13.33
2019-02-22T11:38:30.894Z,13.35
2019-02-22T11:40:59.007Z,13.36
2019-02-22T11:43:27.046Z,13.35
2019-02-22T11:45:55.303Z,13.36
2019-02-22T11:48:23.255Z,13.37
2019-02-22T11:50:51.293Z,13.37
2019-02-22T11:53:19.282Z,13.39
2019-02-22T11:55:47.380Z,13.39
2019-02-22T11:58:15.626Z,13.39
2019-02-22T12:01:04.267Z,13.38
2019-02-22T12:03:32.381Z,13.40
2019-02-22T12:06:00.377Z,13.39
2019-02-22T12:08:28.366Z,13.39
2019-02-22T12:10:56.396Z,13.40
2019-02-22T12:13:24.366Z,13.40
2019-02-22T12:15:52.413Z,13.40
2019-02-22T12:18:20.398Z,13.40
2019-02-22T12:20:48.563Z,13.39
2019-02-22T12:23:16.593Z,13.40
2019-02-22T12:25:44.951Z,13.40
2019-02-22T12:28:12.950Z,13.42
2019-02-22T12:33:14.467Z,13.41
2019-02-22T12:35:42.546Z,13.43
2019-02-22T12:38:10.490Z,13.44
2019-02-22T12:40:38.497Z,13.45
2019-02-22T12:43:06.522Z,13.45
2019-02-22T12:45:34.649Z,13.46
2019-02-22T12:48:02.672Z,13.44
2019-02-22T12:50:30.725Z,13.45
2019-02-22T12:52:58.758Z,13.45
2019-02-22T12:55:26.733Z,13.45
2019-02-22T12:57:54.802Z,13.46
2019-02-22T13:00:22.769Z,13.45
2019-02-22T13:03:01.276Z,13.46
2019-02-22T13:05:20.741Z,13.45
2019-02-22T13:07:48.783Z,13.45
2019-02-22T13:10:16.825Z,13.46
2019-02-22T13:12:44.773Z,13.46
2019-02-22T13:15:14.328Z,13.47
2019-02-22T13:17:42.819Z,13.50
2019-02-22T13:20:12.818Z,13.50
2019-02-22T13:22:40.909Z,13.50
2019-02-22T13:25:29.769Z,13.48
2019-02-22T13:27:57.742Z,13.49
2019-02-22T13:30:25.826Z,13.46
2019-02-22T13:32:53.770Z,13.46
2019-02-22T13:35:21.790Z,13.43
2019-02-22T13:37:49.811Z,13.41
2019-02-22T13:40:17.858Z,13.40
2019-02-22T13:42:45.981Z,13.41
2019-02-22T13:45:25.647Z,13.39
2019-02-22T13:47:43.911Z,13.39
2019-02-22T13:50:12.421Z,13.36
2019-02-22T13:52:40.842Z,13.35
2019-02-22T13:55:09.055Z,13.34
2019-02-22T13:57:37.394Z,13.34
2019-02-22T14:00:06.055Z,13.30
2019-02-22T14:02:34.266Z,13.30
2019-02-22T14:05:02.321Z,13.28
2019-02-22T14:07:30.454Z,13.27
2019-02-22T14:09:58.971Z,13.27
2019-02-22T14:12:27.044Z,13.25
2019-02-22T14:14:54.989Z,13.24
2019-02-22T14:17:23.022Z,13.27
2019-02-22T14:19:50.998Z,13.24
2019-02-22T14:22:19.049Z,13.25
2019-02-22T14:24:47.022Z,13.21
2019-02-22T14:27:15.181Z,13.19
2019-02-22T14:29:43.394Z,13.18
2019-02-22T14:32:11.514Z,13.19
2019-02-22T14:34:40.765Z,13.16
2019-02-22T14:37:09.152Z,13.15
2019-02-22T14:39:38.921Z,13.13
2019-02-22T14:42:07.132Z,13.15
2019-02-22T14:44:35.106Z,13.12
2019-02-22T14:47:03.246Z,13.10
2019-02-22T14:49:31.202Z,13.10
2019-02-22T14:51:59.281Z,13.09
2019-02-22T14:54:27.339Z,13.09
2019-02-22T14:56:55.562Z,13.07
2019-02-22T14:59:23.698Z,13.06
2019-02-22T15:01:52.005Z,13.05
2019-02-22T15:04:20.320Z,13.04
2019-02-22T15:06:48.650Z,13.02
2019-02-22T15:09:16.633Z,13.02
2019-02-22T15:11:44.734Z,13.02
2019-02-22T15:14:12.840Z,13.00
2019-02-22T15:16:53.625Z,12.99
2019-02-22T15:19:22.295Z,12.99
2019-02-22T15:21:50.403Z,12.98
2019-02-22T15:24:18.467Z,12.96
2019-02-22T15:26:46.448Z,12.96
2019-02-22T15:29:14.504Z,12.94
2019-02-22T15:31:42.552Z,12.92
2019-02-22T15:34:10.793Z,12.91
2019-02-22T15:36:38.900Z,12.91
2019-02-22T15:39:07.005Z,12.89
2019-02-22T15:41:35.151Z,12.90
2019-02-22T15:44:05.666Z,12.87
2019-02-22T15:46:33.298Z,12.87
2019-02-22T15:49:01.539Z,12.86
2019-02-22T15:51:29.609Z,12.84
2019-02-22T15:53:57.918Z,12.83
2019-02-22T15:56:25.942Z,12.81
2019-02-22T15:58:54.190Z,12.79
2019-02-22T16:01:23.566Z,12.79
2019-02-22T16:04:10.771Z,12.76
2019-02-22T16:06:38.862Z,12.75
2019-02-22T16:09:07.257Z,12.74
2019-02-22T16:11:35.329Z,12.73
2019-02-22T16:14:03.554Z,12.71
2019-02-22T16:16:32.614Z,12.69
2019-02-22T16:19:00.661Z,12.69
2019-02-22T16:21:28.618Z,12.66
2019-02-22T16:23:57.628Z,12.66
2019-02-22T16:26:29.062Z,12.65
2019-02-22T16:28:57.101Z,12.63
2019-02-22T16:31:25.190Z,12.61
2019-02-22T16:33:53.186Z,12.60
2019-02-22T16:36:21.166Z,12.60
2019-02-22T16:38:49.405Z,12.57
2019-02-22T16:41:17.481Z,12.56
2019-02-22T16:43:45.669Z,12.56
2019-02-22T16:46:13.710Z,12.54
2019-02-22T16:48:41.822Z,12.54
2019-02-22T16:51:09.746Z,12.52
2019-02-22T16:53:37.776Z,12.51
2019-02-22T16:56:05.838Z,12.51
2019-02-22T16:58:33.906Z,12.50
2019-02-22T17:01:01.854Z,12.50
2019-02-22T17:03:29.965Z,12.47
2019-02-22T17:05:58.170Z,12.47
2019-02-22T17:08:26.223Z,12.45
2019-02-22T17:10:54.270Z,12.46
2019-02-22T17:13:22.230Z,12.45
2019-02-22T17:15:50.286Z,12.43
2019-02-22T17:21:05.462Z,12.42
2019-02-22T17:23:33.614Z,12.41
2019-02-22T17:26:02.925Z,12.41
2019-02-22T17:28:30.969Z,12.41
2019-02-22T17:30:59.094Z,12.39
2019-02-22T17:33:27.265Z,12.37
2019-02-22T17:35:55.437Z,12.38
2019-02-22T17:38:23.482Z,12.36
2019-02-22T17:40:51.866Z,12.35
2019-02-22T17:43:19.959Z,12.35
2019-02-22T17:45:48.093Z,12.34
2019-02-22T17:48:16.034Z,12.33
2019-02-22T17:50:44.074Z,12.33
2019-02-22T17:53:12.049Z,12.32
2019-02-22T17:55:40.534Z,12.31
2019-02-22T17:58:08.502Z,12.31
2019-02-22T18:00:36.640Z,12.29
2019-02-22T18:03:04.701Z,12.29
2019-02-22T18:05:33.009Z,12.27
2019-02-22T18:08:01.146Z,12.26
2019-02-22T18:10:29.182Z,12.25
2019-02-22T18:12:57.280Z,12.24
2019-02-22T18:15:25.271Z,12.23
2019-02-22T18:17:53.302Z,12.22
2019-02-22T18:20:21.278Z,12.20
2019-02-22T18:22:49.262Z,12.21
2019-02-22T18:25:17.257Z,12.22
2019-02-22T18:27:45.226Z,12.19
2019-02-22T18:30:13.608Z,12.18
2019-02-22T18:32:41.680Z,12.16
2019-02-22T18:35:09.721Z,12.16
2019-02-22T18:37:37.669Z,12.15
2019-02-22T18:40:06.899Z,12.11
2019-02-22T18:42:35.186Z,12.10
2019-02-22T18:45:03.310Z,12.09
2019-02-22T18:47:31.443Z,12.06
2019-02-22T18:49:59.403Z,12.07
2019-02-22T18:52:27.550Z,12.04
2019-02-22T18:54:55.853Z,12.01
2019-02-22T18:57:23.997Z,11.99
2019-02-22T18:59:52.018Z,11.98
2019-02-22T19:02:20.401Z,11.97
2019-02-22T19:04:48.446Z,11.95
2019-02-22T19:07:16.483Z,11.94
2019-02-22T19:09:44.495Z,11.94
2019-02-22T19:12:12.507Z,11.92
2019-02-22T19:14:40.490Z,11.93
2019-02-22T19:17:08.684Z,11.92
2019-02-22T19:19:36.705Z,11.89
2019-02-22T19:22:09.540Z,11.90
2019-02-22T19:24:37.590Z,11.89
2019-02-22T19:27:05.605Z,11.88
2019-02-22T19:29:34.009Z,11.90
2019-02-22T19:32:02.125Z,11.87
2019-02-22T19:34:30.092Z,11.86
2019-02-22T19:36:58.118Z,11.85
2019-02-22T19:39:27.984Z,11.83
2019-02-22T19:41:56.075Z,11.80
2019-02-22T19:44:24.090Z,11.80
2019-02-22T19:46:52.176Z,11.78
2019-02-22T19:49:20.216Z,11.77
2019-02-22T19:51:48.461Z,11.80
2019-02-22T19:54:16.674Z,11.77
2019-02-22T19:56:44.794Z,11.73
2019-02-22T19:59:12.763Z,11.73
2019-02-22T20:01:40.861Z,11.74
2019-02-22T20:04:09.090Z,11.75
2019-02-22T20:06:37.237Z,11.73
2019-02-22T20:09:06.155Z,11.72
2019-02-22T20:11:34.308Z,11.68
2019-02-22T20:14:02.413Z,11.67
2019-02-22T20:16:30.637Z,11.66
2019-02-22T20:18:58.849Z,11.66
2019-02-22T20:21:26.902Z,11.66
2019-02-22T20:23:54.902Z,11.66
2019-02-22T20:26:23.012Z,11.66
2019-02-22T20:28:51.254Z,11.65
2019-02-22T20:31:20.601Z,11.66
2019-02-22T20:33:48.966Z,11.66
2019-02-22T20:36:27.764Z,11.65
2019-02-22T20:38:46.957Z,11.62
2019-02-22T20:41:15.014Z,11.60
2019-02-22T20:43:43.051Z,11.64
2019-02-22T20:46:11.114Z,11.62
2019-02-22T20:49:00.745Z,11.60
2019-02-22T20:51:28.020Z,11.60
2019-02-22T20:53:56.382Z,11.60
2019-02-22T20:56:24.433Z,11.58
2019-02-22T20:58:52.525Z,11.61
2019-02-22T21:01:20.749Z,10.60
2019-02-22T21:03:49.094Z,11.54
2019-02-22T21:06:17.264Z,11.55
2019-02-22T21:08:45.394Z,11.54
2019-02-22T21:11:13.533Z,11.53
2019-02-22T21:13:41.581Z,11.53
2019-02-22T21:16:09.710Z,11.52
2019-02-22T21:18:37.950Z,11.51
2019-02-22T21:21:06.205Z,11.51
2019-02-22T21:23:34.234Z,11.54
2019-02-22T21:26:02.217Z,11.52
2019-02-22T21:28:30.384Z,11.53
2019-02-22T21:30:58.701Z,11.53
2019-02-22T21:33:26.953Z,11.51
2019-02-22T21:35:55.434Z,11.50
2019-02-22T21:38:23.765Z,11.50
2019-02-22T21:40:51.861Z,11.48
2019-02-22T21:43:20.069Z,11.51
2019-02-22T21:45:48.130Z,11.48
2019-02-22T21:48:26.934Z,11.48
2019-02-22T21:50:45.914Z,11.48
2019-02-22T21:53:14.126Z,11.53
2019-02-22T21:55:42.442Z,11.48
2019-02-22T21:58:10.397Z,11.47
2019-02-22T22:00:38.393Z,11.44
2019-02-22T22:03:06.471Z,11.44
2019-02-22T22:05:34.552Z,11.44
2019-02-22T22:08:02.530Z,11.43
2019-02-22T22:10:30.766Z,11.41
2019-02-22T22:12:59.026Z,11.42
2019-02-22T22:15:27.915Z,11.42
2019-02-22T22:17:55.945Z,11.44
2019-02-22T22:20:24.379Z,11.39
2019-02-22T22:22:52.324Z,11.39
2019-02-22T22:25:20.527Z,11.36
2019-02-22T22:27:48.622Z,11.35
2019-02-22T22:30:16.665Z,11.34
2019-02-22T22:32:44.737Z,11.33
2019-02-22T22:35:12.746Z,11.31
2019-02-22T22:37:40.681Z,11.29
2019-02-22T22:40:09.249Z,11.28
2019-02-22T22:42:37.442Z,11.29
2019-02-22T22:45:06.140Z,11.34
2019-02-22T22:47:34.410Z,11.30
2019-02-22T22:50:02.709Z,11.28
2019-02-22T22:52:30.754Z,11.29
2019-02-22T22:55:00.268Z,11.26
2019-02-22T22:57:28.530Z,11.26
2019-02-22T22:59:56.558Z,11.23
2019-02-22T23:02:24.797Z,11.23
2019-02-22T23:04:52.790Z,11.22
2019-02-22T23:07:20.829Z,11.21
2019-02-22T23:09:48.902Z,11.21
2019-02-22T23:12:17.157Z,11.16
2019-02-22T23:14:45.362Z,11.18
2019-02-22T23:17:13.569Z,11.18
2019-02-22T23:19:41.854Z,11.19
2019-02-22T23:22:09.951Z,11.20
2019-02-22T23:24:38.061Z,11.18
2019-02-22T23:27:06.451Z,11.19
2019-02-22T23:29:34.496Z,11.15
2019-02-22T23:32:02.846Z,11.14
2019-02-22T23:34:30.950Z,11.15
2019-02-22T23:36:59.070Z,11.11
2019-02-22T23:39:27.268Z,11.10
2019-02-22T23:41:55.186Z,11.08
2019-02-22T23:44:23.371Z,11.09
2019-02-22T23:46:51.498Z,11.09
2019-02-22T23:49:19.529Z,11.09
2019-02-22T23:51:47.511Z,11.06
2019-02-22T23:54:15.627Z,11.07
2019-02-22T23:56:43.709Z,11.08
2019-02-22T23:59:12.027Z,11.08
